Time;durP1;ratioP1;P1;durP2;ratioP2;P2;SDS_P1;SDS_P2;PMS_P1;PMS_P2;Temp;Humidity;BMP_temperature;BMP_pressure;BME280_temperature;BME280_humidity;BME280_pressure;Samples;Min_cycle;Max_cycle;Signal;HPM_P1;HPM_P2
2024/03/23 00:02:01;;;;;;;15.10;6.00;;;12.60;66.70;14.30;100925.00;;;;4995257;28;20202;-84
2024/03/23 00:04:33;;;;;;;15.02;6.53;;;12.60;66.70;14.30;100911.00;;;;4993447;28;20313;-84
2024/03/23 00:07:04;;;;;;;11.45;5.40;;;12.60;66.70;14.30;100908.00;;;;4994888;28;20281;-84
2024/03/23 00:09:32;;;;;;;12.90;4.72;;;12.50;66.70;14.30;100914.00;;;;4994940;28;20197;-84
2024/03/23 00:12:00;;;;;;;13.32;5.72;;;12.50;66.70;14.30;100918.00;;;;4994467;28;20281;-83
2024/03/23 00:14:28;;;;;;;12.82;6.25;;;12.50;66.70;14.30;100912.00;;;;4992944;28;20198;-84
2024/03/23 00:16:55;;;;;;;11.02;5.68;;;12.50;66.70;14.30;100919.00;;;;4995159;28;20194;-84
2024/03/23 00:19:24;;;;;;;13.70;5.47;;;12.50;66.70;14.30;100900.00;;;;4994998;28;20225;-77
2024/03/23 00:21:51;;;;;;;12.10;5.57;;;12.50;66.70;14.30;100914.00;;;;4995151;28;20238;-84
2024/03/23 00:24:24;;;;;;;10.15;5.28;;;12.50;66.80;14.20;100901.00;;;;4994873;28;20240;-83
2024/03/23 00:26:55;;;;;;;10.13;5.53;;;12.50;66.80;14.20;100899.00;;;;4993732;28;20293;-85
2024/03/23 00:29:28;;;;;;;12.20;6.13;;;12.50;66.70;14.20;100892.00;;;;4994669;28;20244;-82
2024/03/23 00:31:59;;;;;;;15.02;6.70;;;12.50;66.70;14.20;100891.00;;;;4995103;28;20289;-85
2024/03/23 00:34:32;;;;;;;10.02;4.75;;;12.50;66.80;14.20;100890.00;;;;4993297;28;20644;-83
2024/03/23 00:37:04;;;;;;;12.77;6.07;;;12.40;66.70;14.20;100888.00;;;;5000354;28;20197;-84
2024/03/23 00:39:36;;;;;;;12.27;5.95;;;12.40;66.70;14.20;100893.00;;;;4993267;28;20190;-84
2024/03/23 00:42:08;;;;;;;11.68;5.95;;;12.40;66.80;14.10;100879.00;;;;4993881;28;20690;-83
2024/03/23 00:44:40;;;;;;;10.15;4.97;;;12.40;66.80;14.10;100883.00;;;;4994702;28;20726;-85
2024/03/23 00:47:12;;;;;;;9.32;5.70;;;12.40;66.90;14.10;100875.00;;;;4994001;28;20194;-82
2024/03/23 00:49:45;;;;;;;9.18;5.28;;;12.40;66.90;14.10;100870.00;;;;4992692;28;20206;-83
2024/03/23 00:52:14;;;;;;;12.48;5.65;;;12.40;67.60;14.10;100870.00;;;;4993016;28;20208;-82
2024/03/23 00:54:41;;;;;;;13.48;6.38;;;12.40;66.90;14.20;100873.00;;;;4994198;28;20217;-81
2024/03/23 00:57:07;;;;;;;12.65;6.15;;;12.40;67.00;14.10;100870.00;;;;4993971;28;20208;-85
2024/03/23 00:59:34;;;;;;;12.65;5.88;;;12.40;67.00;14.10;100866.00;;;;4993807;28;20201;-83
2024/03/23 01:02:00;;;;;;;13.05;6.00;;;12.40;67.00;14.20;100856.00;;;;4985120;28;20293;-84
2024/03/23 01:04:27;;;;;;;15.10;7.13;;;12.40;67.00;14.10;100857.00;;;;4989891;28;20245;-84
2024/03/23 01:06:53;;;;;;;12.20;6.00;;;12.40;67.00;14.10;100858.00;;;;4989456;28;20285;-85
2024/03/23 01:09:22;;;;;;;9.50;5.82;;;12.40;67.10;14.20;100862.00;;;;4993651;28;20198;-79
2024/03/23 01:11:49;;;;;;;12.77;6.07;;;12.40;67.10;14.20;100854.00;;;;4992458;28;20206;-83
2024/03/23 01:14:15;;;;;;;11.57;5.80;;;12.40;67.10;14.20;100844.00;;;;4991415;28;20198;-84
2024/03/23 01:16:42;;;;;;;11.80;5.80;;;12.40;67.10;14.20;100845.00;;;;4992768;28;20666;-85
2024/03/23 01:19:09;;;;;;;11.82;5.90;;;12.40;67.10;14.20;100852.00;;;;4993881;28;20221;-84
2024/03/23 01:21:35;;;;;;;12.45;5.80;;;12.40;67.10;14.20;100847.00;;;;4993534;28;20277;-85
2024/03/23 01:24:02;;;;;;;8.77;6.45;;;12.40;67.10;14.20;100836.00;;;;4992762;28;20292;-84
2024/03/23 01:26:29;;;;;;;11.77;6.43;;;12.40;67.10;14.20;100827.00;;;;4992315;28;20222;-85
2024/03/23 01:28:56;;;;;;;11.85;6.00;;;12.40;67.10;14.20;100822.00;;;;5004087;28;20333;-84
2024/03/23 01:31:22;;;;;;;12.18;6.07;;;12.50;67.20;14.20;100817.00;;;;4993442;28;20190;-85
2024/03/23 01:33:50;;;;;;;11.85;6.25;;;12.40;67.10;14.20;100819.00;;;;4992241;28;20252;-82
2024/03/23 01:36:16;;;;;;;11.48;6.15;;;12.40;67.00;14.20;100811.00;;;;4993049;28;20635;-85
2024/03/23 01:38:43;;;;;;;12.68;6.15;;;12.50;67.10;14.20;100811.00;;;;4992438;28;20211;-84
2024/03/23 01:41:09;;;;;;;12.98;6.32;;;12.40;67.00;14.20;100808.00;;;;4993295;28;20214;-85
2024/03/23 01:43:37;;;;;;;13.02;5.88;;;12.40;67.00;14.10;100804.00;;;;4992810;28;20248;-85
2024/03/23 01:46:04;;;;;;;14.30;6.00;;;12.40;66.90;14.10;100796.00;;;;4991648;28;20245;-84
2024/03/23 01:48:31;;;;;;;9.98;6.30;;;12.40;66.80;14.10;100797.00;;;;4991225;28;20229;-84
2024/03/23 01:50:57;;;;;;;11.00;5.38;;;12.40;66.70;14.10;100795.00;;;;4992823;28;20189;-85
2024/03/23 01:53:24;;;;;;;14.20;5.97;;;12.30;67.30;14.00;100803.00;;;;4993539;28;20218;-85
2024/03/23 01:55:51;;;;;;;12.00;6.13;;;12.30;66.60;14.00;100797.00;;;;4990443;28;20200;-85
2024/03/23 01:58:18;;;;;;;16.25;6.30;;;12.30;67.20;13.90;100803.00;;;;4994617;28;20193;-84
2024/03/23 02:00:46;;;;;;;13.27;5.95;;;12.30;66.40;13.90;100795.00;;;;4992804;28;20229;-84
2024/03/23 02:03:26;;;;;;;10.50;5.40;;;12.20;66.30;13.70;100802.00;;;;5005000;28;20222;-85
2024/03/23 02:05:54;;;;;;;10.23;6.03;;;12.10;66.30;13.80;100794.00;;;;4993398;28;20803;-83
2024/03/23 02:08:23;;;;;;;10.55;5.72;;;12.10;66.10;13.70;100789.00;;;;4994255;28;20552;-85
2024/03/23 02:10:50;;;;;;;7.65;5.38;;;12.00;66.10;13.70;100794.00;;;;4991983;28;20221;-84
2024/03/23 02:13:19;;;;;;;10.63;5.43;;;12.00;66.00;13.60;100790.00;;;;4991052;28;20719;-77
2024/03/23 02:15:46;;;;;;;12.52;6.28;;;11.90;66.00;13.60;100791.00;;;;4992560;28;20205;-85
2024/03/23 02:18:13;;;;;;;12.38;5.15;;;11.90;66.00;13.50;100792.00;;;;4992084;28;20280;-84
2024/03/23 02:20:39;;;;;;;10.40;5.40;;;11.80;65.90;13.50;100785.00;;;;4991708;28;20774;-85
2024/03/23 02:23:14;;;;;;;13.10;5.45;;;11.80;66.00;13.30;100789.00;;;;4991283;28;20288;-85
2024/03/23 02:25:40;;;;;;;11.20;4.88;;;11.70;66.00;13.40;100781.00;;;;4991730;28;20332;-84
2024/03/23 02:28:08;;;;;;;12.60;5.47;;;11.70;65.90;13.30;100780.00;;;;4991790;28;20248;-85
2024/03/23 02:30:35;;;;;;;9.57;6.20;;;11.60;66.00;13.30;100780.00;;;;4990835;28;20217;-85
2024/03/23 02:33:01;;;;;;;9.50;5.20;;;11.60;65.90;13.20;100771.00;;;;4991483;28;20203;-85
2024/03/23 02:35:29;;;;;;;10.20;4.47;;;11.50;65.90;13.20;100774.00;;;;4991953;28;20240;-84
2024/03/23 02:37:56;;;;;;;11.40;5.30;;;11.40;65.90;13.10;100773.00;;;;4991332;28;20757;-84
2024/03/23 02:40:25;;;;;;;16.17;5.15;;;11.40;65.90;13.10;100772.00;;;;4992282;28;20193;-85
2024/03/23 02:42:51;;;;;;;10.10;4.95;;;11.30;65.90;13.00;100772.00;;;;4991955;28;20197;-84
2024/03/23 02:45:18;;;;;;;12.70;5.28;;;11.30;65.90;13.00;100773.00;;;;4986301;28;20226;-84
2024/03/23 02:47:45;;;;;;;8.52;5.18;;;11.20;66.00;12.90;100772.00;;;;4989359;28;20683;-83
2024/03/23 02:50:12;;;;;;;7.72;4.72;;;11.20;66.10;12.90;100767.00;;;;4991507;28;20276;-84
2024/03/23 02:52:38;;;;;;;10.32;5.10;;;11.10;66.00;12.80;100775.00;;;;4991976;28;20575;-82
2024/03/23 02:55:05;;;;;;;9.25;5.05;;;11.10;66.10;12.80;100775.00;;;;4991435;28;20209;-85
2024/03/23 02:57:33;;;;;;;11.20;4.38;;;11.10;66.20;12.80;100774.00;;;;4992025;28;20193;-84
2024/03/23 03:00:00;;;;;;;10.43;4.35;;;11.10;66.30;12.70;100765.00;;;;4991183;28;20205;-82
2024/03/23 03:02:26;;;;;;;8.43;5.32;;;11.00;66.30;12.70;100765.00;;;;4991938;28;20217;-83
2024/03/23 03:04:53;;;;;;;10.07;4.93;;;11.00;66.30;12.60;100764.00;;;;4990766;28;20206;-82
2024/03/23 03:07:19;;;;;;;8.07;4.25;;;10.90;66.30;12.60;100774.00;;;;4991689;28;20186;-84
2024/03/23 03:09:46;;;;;;;9.43;5.22;;;10.90;66.30;12.60;100773.00;;;;4991769;28;20260;-82
2024/03/23 03:12:12;;;;;;;8.15;4.30;;;10.90;66.30;12.50;100771.00;;;;4989928;28;20200;-84
2024/03/23 03:14:41;;;;;;;11.30;4.60;;;10.80;66.20;12.50;100771.00;;;;4991397;28;20198;-85
2024/03/23 03:17:07;;;;;;;8.02;4.18;;;10.80;66.20;12.50;100770.00;;;;4991587;28;20193;-83
2024/03/23 03:19:34;;;;;;;7.65;4.25;;;10.80;66.20;12.40;100767.00;;;;4988784;28;20785;-84
2024/03/23 03:22:00;;;;;;;8.82;4.03;;;10.70;66.20;12.40;100764.00;;;;4992002;28;20206;-83
2024/03/23 03:24:27;;;;;;;8.38;4.10;;;10.70;66.30;12.40;100775.00;;;;4990987;28;20220;-82
2024/03/23 03:26:53;;;;;;;8.80;4.25;;;10.60;66.20;12.30;100768.00;;;;4991081;28;20595;-84
2024/03/23 03:29:20;;;;;;;6.68;3.60;;;10.60;66.20;12.30;100768.00;;;;4990452;28;20756;-84
2024/03/23 03:31:49;;;;;;;6.65;3.92;;;10.60;66.10;12.20;100771.00;;;;4990908;28;20202;-85
2024/03/23 03:34:16;;;;;;;7.05;3.75;;;10.60;66.20;12.20;100762.00;;;;4991217;28;20758;-84
2024/03/23 03:36:42;;;;;;;5.60;3.35;;;10.50;66.00;12.20;100763.00;;;;4991409;28;21149;-83
2024/03/23 03:39:10;;;;;;;5.90;3.30;;;10.50;66.00;12.10;100752.00;;;;4990836;28;20194;-83
2024/03/23 03:41:37;;;;;;;5.93;2.95;;;10.40;66.00;12.10;100748.00;;;;4989843;28;20284;-84
2024/03/23 03:44:03;;;;;;;5.55;3.83;;;10.40;66.10;12.10;100739.00;;;;4991230;28;20673;-84
2024/03/23 03:46:30;;;;;;;6.35;3.80;;;10.40;66.40;12.00;100754.00;;;;4991252;28;20228;-85
2024/03/23 03:48:57;;;;;;;5.70;3.10;;;10.30;66.10;12.00;100739.00;;;;4991213;28;20288;-85
2024/03/23 03:51:25;;;;;;;7.28;3.83;;;10.30;66.00;12.00;100743.00;;;;4990320;28;20720;-85
2024/03/23 03:53:51;;;;;;;5.38;3.20;;;10.20;66.00;11.90;100742.00;;;;4990963;28;20655;-85
2024/03/23 03:56:18;;;;;;;5.38;3.10;;;10.20;66.00;11.90;100746.00;;;;4991025;28;20194;-85
2024/03/23 03:58:44;;;;;;;5.93;3.53;;;10.10;66.00;11.80;100740.00;;;;4991713;28;20889;-82
2024/03/23 04:01:11;;;;;;;5.70;3.45;;;10.10;65.90;11.80;100735.00;;;;4999157;28;20197;-84
2024/03/23 04:03:39;;;;;;;7.15;3.63;;;10.00;65.90;11.80;100736.00;;;;4991313;28;20208;-84
2024/03/23 04:06:08;;;;;;;7.93;3.42;;;10.00;65.90;11.70;100743.00;;;;4990594;28;20218;-85
2024/03/23 04:08:35;;;;;;;4.75;3.20;;;9.90;65.90;11.70;100737.00;;;;4991067;28;20194;-84
2024/03/23 04:11:01;;;;;;;4.85;3.28;;;9.90;65.90;11.60;100728.00;;;;4994923;28;20205;-82
2024/03/23 04:13:28;;;;;;;6.47;3.92;;;9.90;65.90;11.60;100732.00;;;;4993750;28;20201;-84
2024/03/23 04:15:55;;;;;;;5.40;3.40;;;9.90;65.90;11.60;100725.00;;;;4993154;28;20309;-85
2024/03/23 04:18:22;;;;;;;3.63;2.70;;;9.80;65.90;11.60;100722.00;;;;4995081;28;20248;-86
2024/03/23 04:20:49;;;;;;;4.20;3.05;;;9.80;65.90;11.50;100722.00;;;;4993155;28;20226;-76
2024/03/23 04:23:17;;;;;;;5.60;3.10;;;9.70;65.90;11.50;100725.00;;;;4994542;28;20731;-84
2024/03/23 04:25:44;;;;;;;4.53;3.40;;;9.70;65.90;11.40;100721.00;;;;4993627;28;20317;-82
2024/03/23 04:28:11;;;;;;;4.65;3.05;;;9.60;65.80;11.40;100721.00;;;;4984892;28;20220;-86
2024/03/23 04:30:37;;;;;;;5.47;2.63;;;9.60;65.90;11.40;100720.00;;;;4992983;28;20300;-78
2024/03/23 04:33:05;;;;;;;7.00;3.33;;;9.60;66.00;11.30;100725.00;;;;4994925;28;20194;-85
2024/03/23 04:35:31;;;;;;;4.97;3.08;;;9.50;65.90;11.30;100720.00;;;;4994783;28;20285;-85
2024/03/23 04:37:59;;;;;;;4.70;2.85;;;9.50;65.90;11.30;100722.00;;;;4993858;28;20189;-84
2024/03/23 04:40:28;;;;;;;4.13;3.03;;;9.50;65.90;11.20;100720.00;;;;4993223;28;20220;-82
2024/03/23 04:42:55;;;;;;;6.18;3.22;;;9.50;65.90;11.20;100724.00;;;;4994182;28;20284;-85
2024/03/23 04:45:22;;;;;;;5.38;2.72;;;9.40;65.90;11.20;100721.00;;;;4993272;28;20232;-84
2024/03/23 04:47:50;;;;;;;4.75;2.60;;;9.40;65.90;11.10;100712.00;;;;4993723;28;20228;-84
2024/03/23 04:50:18;;;;;;;2.92;2.20;;;9.40;66.20;11.10;100716.00;;;;4986820;28;20659;-79
2024/03/23 04:52:44;;;;;;;4.20;2.33;;;9.30;65.80;11.10;100722.00;;;;4988935;28;20232;-85
2024/03/23 04:55:12;;;;;;;5.82;2.53;;;9.30;65.80;11.00;100713.00;;;;4991973;28;20197;-84
2024/03/23 04:57:40;;;;;;;4.38;3.00;;;9.20;65.80;11.00;100712.00;;;;4993202;28;20201;-83
2024/03/23 05:00:17;;;;;;;6.07;2.25;;;9.20;65.80;11.00;100712.00;;;;4994016;28;20198;-85
2024/03/23 05:02:46;;;;;;;3.67;2.42;;;9.20;65.80;10.90;100709.00;;;;5005291;28;20289;-84
2024/03/23 05:05:12;;;;;;;4.53;2.17;;;9.20;65.90;10.90;100711.00;;;;4983514;28;20201;-85
2024/03/23 05:07:39;;;;;;;3.28;2.08;;;9.10;65.90;10.90;100709.00;;;;4993133;28;20241;-84
2024/03/23 05:10:10;;;;;;;4.22;2.17;;;9.10;66.00;10.90;100716.00;;;;4996055;28;20201;-82
2024/03/23 05:12:37;;;;;;;3.47;2.05;;;9.10;66.00;10.80;100716.00;;;;4993792;28;20288;-83
2024/03/23 05:15:06;;;;;;;5.13;2.58;;;9.00;66.00;10.80;100712.00;;;;4992197;28;20202;-78
2024/03/23 05:17:33;;;;;;;4.80;2.05;;;9.00;66.00;10.80;100714.00;;;;4988399;28;20194;-84
2024/03/23 05:19:59;;;;;;;4.45;2.15;;;9.00;66.10;10.70;100718.00;;;;4992610;28;20210;-85
2024/03/23 05:22:27;;;;;;;5.20;2.05;;;9.00;66.10;10.70;100716.00;;;;4992816;28;20660;-85
2024/03/23 05:24:53;;;;;;;5.50;2.40;;;9.00;66.20;10.70;100725.00;;;;4994079;28;20651;-83
2024/03/23 05:27:20;;;;;;;3.25;2.00;;;9.00;66.20;10.70;100722.00;;;;4993565;28;20228;-84
2024/03/23 05:29:47;;;;;;;4.93;1.92;;;9.00;66.20;10.70;100726.00;;;;4992979;28;20208;-82
2024/03/23 05:32:15;;;;;;;4.53;2.22;;;8.90;66.20;10.70;100724.00;;;;4994637;28;20260;-82
2024/03/23 05:34:41;;;;;;;2.05;1.15;;;8.90;66.30;10.70;100718.00;;;;4992484;28;20215;-83
2024/03/23 05:37:08;;;;;;;3.22;1.65;;;8.90;66.30;10.70;100719.00;;;;4992686;28;20578;-85
2024/03/23 05:39:35;;;;;;;3.70;1.70;;;8.90;66.40;10.70;100725.00;;;;4993701;28;20590;-82
2024/03/23 05:42:02;;;;;;;3.30;1.33;;;8.90;66.50;10.70;100734.00;;;;4992912;28;20212;-81
2024/03/23 05:44:28;;;;;;;6.05;1.98;;;8.90;66.60;10.70;100729.00;;;;4992807;28;20229;-82
2024/03/23 05:46:55;;;;;;;3.65;1.50;;;9.00;66.70;10.80;100732.00;;;;4992592;28;20225;-85
2024/03/23 05:49:24;;;;;;;4.43;1.55;;;9.00;66.80;10.80;100724.00;;;;4992452;28;20204;-84
2024/03/23 05:51:51;;;;;;;1.95;1.35;;;9.00;67.00;10.90;100725.00;;;;4992307;28;20198;-84
2024/03/23 05:54:18;;;;;;;2.90;1.45;;;9.00;67.10;10.90;100715.00;;;;4991802;28;20194;-85
2024/03/23 05:56:44;;;;;;;5.55;1.90;;;9.10;67.30;11.00;100709.00;;;;4992944;28;20201;-86
2024/03/23 05:59:11;;;;;;;3.83;1.27;;;9.10;67.30;11.00;100699.00;;;;4993475;28;20198;-85
2024/03/23 06:01:39;;;;;;;4.80;1.35;;;9.10;67.20;11.00;100715.00;;;;4982455;28;20216;-85
2024/03/23 06:04:06;;;;;;;4.65;1.30;;;9.20;67.20;11.10;100712.00;;;;4992587;28;20190;-82
2024/03/23 06:06:33;;;;;;;4.30;1.20;;;9.20;67.10;11.00;100710.00;;;;4985670;28;20632;-85
2024/03/23 06:09:00;;;;;;;8.15;1.67;;;9.20;67.70;11.10;100718.00;;;;4994382;28;20252;-84
2024/03/23 06:11:27;;;;;;;2.63;1.33;;;9.20;67.00;11.10;100715.00;;;;4993720;28;20209;-83
2024/03/23 06:13:54;;;;;;;6.47;1.35;;;9.30;67.00;11.10;100727.00;;;;4992551;28;20216;-84
2024/03/23 06:16:23;;;;;;;4.53;1.38;;;9.30;67.00;11.20;100725.00;;;;4993304;28;20652;-85
2024/03/23 06:18:50;;;;;;;3.15;1.15;;;9.30;67.00;11.20;100723.00;;;;4989405;28;20280;-86
2024/03/23 06:21:18;;;;;;;4.18;1.58;;;9.40;67.10;11.20;100725.00;;;;4992715;28;20197;-82
2024/03/23 06:23:51;;;;;;;3.08;1.13;;;9.40;67.70;11.20;100720.00;;;;4990381;28;20280;-88
2024/03/23 06:26:19;;;;;;;2.20;0.80;;;9.40;67.00;11.20;100715.00;;;;4992609;28;20214;-87
2024/03/23 06:28:48;;;;;;;3.50;1.17;;;9.40;66.90;11.30;100715.00;;;;4992917;28;20576;-78
2024/03/23 06:31:15;;;;;;;3.35;1.15;;;9.50;67.00;11.30;100710.00;;;;4995979;28;20204;-88
2024/03/23 06:33:45;;;;;;;5.63;1.30;;;9.50;67.60;11.30;100709.00;;;;5001674;28;20205;-87
2024/03/23 06:36:12;;;;;;;3.00;1.10;;;9.50;67.00;11.40;100706.00;;;;5000160;28;20196;-86
2024/03/23 06:38:39;;;;;;;3.28;1.27;;;9.50;67.00;11.40;100712.00;;;;5005474;28;20280;-85
2024/03/23 06:41:08;;;;;;;5.05;1.02;;;9.60;67.10;11.40;100703.00;;;;4999439;28;20276;-87
2024/03/23 06:43:35;;;;;;;2.55;1.27;;;9.70;67.20;11.50;100698.00;;;;5003816;28;20708;-86
2024/03/23 06:46:04;;;;;;;3.80;1.83;;;9.70;67.20;11.60;100698.00;;;;5000585;28;20703;-84
2024/03/23 06:48:31;;;;;;;2.53;1.13;;;9.70;67.20;11.60;100702.00;;;;4993474;28;20198;-88
2024/03/23 06:50:57;;;;;;;4.22;1.23;;;9.80;67.30;11.60;100702.00;;;;5001152;28;20678;-82
2024/03/23 06:53:25;;;;;;;4.50;1.50;;;9.80;67.30;11.70;100711.00;;;;5004431;28;20276;-87
2024/03/23 06:55:52;;;;;;;3.50;0.75;;;9.90;67.30;11.70;100707.00;;;;4990584;28;21043;-90
2024/03/23 06:58:22;;;;;;;4.35;0.80;;;9.90;67.20;11.80;100705.00;;;;4996281;28;20192;-90
2024/03/23 07:00:49;;;;;;;4.30;1.35;;;10.00;67.30;11.80;100717.00;;;;4997961;28;20204;-85
2024/03/23 07:03:17;;;;;;;3.05;1.00;;;10.00;67.30;11.90;100715.00;;;;4994193;28;20233;-89
2024/03/23 07:05:43;;;;;;;6.43;1.02;;;10.10;67.30;12.00;100707.00;;;;4990734;28;20269;-91
2024/03/23 07:08:10;;;;;;;3.03;1.30;;;10.20;67.40;12.00;100712.00;;;;4993531;28;20292;-90
2024/03/23 07:10:39;;;;;;;3.20;1.10;;;10.20;67.40;12.00;100712.00;;;;4993261;28;20253;-87
2024/03/23 07:13:06;;;;;;;4.65;1.58;;;10.30;67.40;12.10;100720.00;;;;5002232;28;20205;-89
2024/03/23 07:15:34;;;;;;;4.78;1.50;;;10.30;67.30;12.20;100713.00;;;;5012629;28;20193;-88
2024/03/23 07:18:01;;;;;;;6.95;1.50;;;10.40;67.20;12.20;100704.00;;;;4995230;28;20225;-87
2024/03/23 07:20:29;;;;;;;1.50;1.00;;;10.40;67.30;12.30;100717.00;;;;4993352;28;20229;-85
2024/03/23 07:22:56;;;;;;;2.63;1.27;;;10.50;67.20;12.30;100709.00;;;;4989666;28;20659;-83
2024/03/23 07:25:23;;;;;;;4.40;1.52;;;10.60;67.20;12.30;100713.00;;;;4992939;28;20206;-85
2024/03/23 07:27:50;;;;;;;5.38;1.50;;;10.60;67.00;12.40;100720.00;;;;5002002;28;20263;-88
2024/03/23 07:30:16;;;;;;;3.92;1.45;;;10.70;66.80;12.40;100721.00;;;;5009905;28;20658;-82
2024/03/23 07:32:47;;;;;;;8.30;1.85;;;10.70;66.70;12.50;100714.00;;;;4990349;28;20194;-86
2024/03/23 07:35:13;;;;;;;5.43;1.85;;;10.80;66.80;12.60;100712.00;;;;4982818;28;20198;-87
2024/03/23 07:37:40;;;;;;;5.43;1.73;;;10.80;66.70;12.60;100717.00;;;;4993764;28;20288;-88
2024/03/23 07:40:08;;;;;;;7.57;1.83;;;10.90;66.60;12.70;100711.00;;;;4989306;28;20202;-83
2024/03/23 07:42:35;;;;;;;3.42;1.23;;;10.90;66.70;12.70;100715.00;;;;4991825;28;20284;-78
2024/03/23 07:45:01;;;;;;;6.18;1.90;;;11.00;66.70;12.80;100720.00;;;;4993056;28;20668;-82
2024/03/23 07:47:28;;;;;;;4.82;1.98;;;11.10;66.70;12.80;100717.00;;;;4991709;28;20221;-86
2024/03/23 07:49:55;;;;;;;4.47;1.27;;;11.10;66.60;12.90;100718.00;;;;4979563;28;20345;-85
2024/03/23 07:52:22;;;;;;;6.97;1.77;;;11.20;66.50;12.90;100712.00;;;;4981786;28;20189;-85
2024/03/23 07:54:48;;;;;;;4.50;1.38;;;11.20;66.40;13.00;100718.00;;;;4993674;28;20194;-78
2024/03/23 07:57:15;;;;;;;5.47;2.08;;;11.30;66.20;13.10;100714.00;;;;4995451;28;20209;-77
2024/03/23 07:59:41;;;;;;;6.30;1.85;;;11.40;66.30;13.20;100714.00;;;;4999099;28;20190;-85
2024/03/23 08:02:08;;;;;;;3.97;1.48;;;11.50;66.00;13.20;100707.00;;;;4995324;28;20217;-79
2024/03/23 08:04:35;;;;;;;3.53;1.48;;;11.60;65.70;13.30;100716.00;;;;4993677;28;20214;-80
2024/03/23 08:07:03;;;;;;;5.18;1.40;;;11.60;65.40;13.30;100719.00;;;;4995104;28;20229;-80
2024/03/23 08:09:29;;;;;;;5.45;1.38;;;11.70;65.10;13.30;100718.00;;;;4995252;28;20229;-80
2024/03/23 08:11:56;;;;;;;4.80;1.50;;;11.80;64.90;13.40;100713.00;;;;4994679;28;20209;-80
2024/03/23 08:14:22;;;;;;;4.72;1.20;;;11.80;64.60;13.40;100707.00;;;;4993946;28;20204;-78
2024/03/23 08:16:51;;;;;;;4.80;1.38;;;11.90;64.50;13.50;100711.00;;;;4990926;28;20282;-80
2024/03/23 08:19:17;;;;;;;3.10;1.15;;;11.90;64.00;13.50;100706.00;;;;4993902;28;20224;-77
2024/03/23 08:21:44;;;;;;;3.92;1.30;;;12.00;64.40;13.50;100710.00;;;;4994673;28;20205;-77
2024/03/23 08:24:11;;;;;;;3.50;1.08;;;12.00;63.90;13.60;100706.00;;;;4994191;28;20289;-76
2024/03/23 08:26:39;;;;;;;5.43;1.33;;;12.00;63.80;13.60;100707.00;;;;4994114;28;20213;-78
2024/03/23 08:29:05;;;;;;;3.22;1.05;;;12.00;63.60;13.60;100725.00;;;;4994773;28;20202;-78
2024/03/23 08:31:32;;;;;;;3.45;1.27;;;12.00;63.20;13.60;100713.00;;;;4994143;28;20193;-82
2024/03/23 08:33:58;;;;;;;3.55;1.23;;;12.00;63.10;13.60;100710.00;;;;4994457;28;20593;-77
2024/03/23 08:36:25;;;;;;;5.30;1.42;;;12.00;62.80;13.60;100709.00;;;;4995114;28;20264;-78
2024/03/23 08:38:53;;;;;;;4.90;1.23;;;12.00;62.70;13.60;100712.00;;;;4994731;28;20194;-76
2024/03/23 08:41:22;;;;;;;3.80;1.65;;;12.00;63.40;13.70;100720.00;;;;4994349;28;20198;-80
2024/03/23 08:43:48;;;;;;;5.32;1.38;;;12.10;62.70;13.70;100714.00;;;;4994290;28;20636;-77
2024/03/23 08:46:17;;;;;;;7.15;1.17;;;12.10;62.20;13.70;100718.00;;;;4994122;28;20234;-79
2024/03/23 08:48:45;;;;;;;7.03;1.90;;;12.10;62.50;13.80;100716.00;;;;4993653;28;20284;-76
2024/03/23 08:51:14;;;;;;;3.80;1.00;;;12.10;62.70;13.80;100721.00;;;;4994976;28;20219;-77
2024/03/23 08:53:40;;;;;;;6.13;1.23;;;12.20;62.70;13.90;100715.00;;;;4994310;28;20770;-78
2024/03/23 08:56:09;;;;;;;6.97;1.38;;;12.20;62.60;13.90;100711.00;;;;4994211;28;20209;-76
2024/03/23 08:58:38;;;;;;;11.00;1.25;;;12.30;62.40;14.00;100711.00;;;;4994352;28;20232;-76
2024/03/23 09:01:08;;;;;;;3.42;1.20;;;12.30;62.70;14.00;100706.00;;;;4991888;28;20214;-80
2024/03/23 09:03:35;;;;;;;2.97;1.17;;;12.40;63.00;14.20;100698.00;;;;4994000;28;20218;-78
2024/03/23 09:06:02;;;;;;;6.00;1.17;;;12.50;63.00;14.30;100689.00;;;;4994110;28;20202;-76
2024/03/23 09:08:29;;;;;;;5.22;1.10;;;12.60;63.10;14.40;100687.00;;;;4992777;28;20429;-76
2024/03/23 09:10:56;;;;;;;6.55;1.30;;;12.70;63.30;14.60;100685.00;;;;4991672;28;20202;-83
2024/03/23 09:13:22;;;;;;;3.35;1.48;;;12.80;63.20;14.70;100689.00;;;;4992090;28;20198;-78
2024/03/23 09:15:56;;;;;;;7.28;1.20;;;13.00;62.20;14.70;100689.00;;;;4989902;28;20557;-80
2024/03/23 09:18:22;;;;;;;6.20;1.13;;;13.10;62.00;14.80;100687.00;;;;4993474;28;20289;-83
2024/03/23 09:20:49;;;;;;;4.75;1.70;;;13.20;61.50;14.80;100681.00;;;;4993295;28;20699;-80
2024/03/23 09:23:15;;;;;;;4.63;1.00;;;13.30;61.40;14.80;100685.00;;;;4994846;28;20204;-81
2024/03/23 09:25:43;;;;;;;4.65;1.25;;;13.30;61.30;14.90;100707.00;;;;4995985;28;20193;-79
2024/03/23 09:28:09;;;;;;;3.35;1.05;;;13.40;60.60;14.80;100707.00;;;;4991587;28;20666;-82
2024/03/23 09:30:42;;;;;;;3.47;0.80;;;13.40;60.00;14.70;100697.00;;;;4993470;28;20198;-79
2024/03/23 09:33:09;;;;;;;8.20;1.35;;;13.40;60.00;14.70;100687.00;;;;4986941;28;20205;-77
2024/03/23 09:35:38;;;;;;;3.30;1.00;;;13.30;59.80;14.70;100693.00;;;;4990411;28;20209;-77
2024/03/23 09:38:04;;;;;;;5.20;0.80;;;13.30;59.60;14.70;100692.00;;;;5005487;28;20213;-80
2024/03/23 09:40:32;;;;;;;5.35;0.80;;;13.30;59.80;14.70;100690.00;;;;4996881;28;20197;-76
2024/03/23 09:42:59;;;;;;;5.72;1.20;;;13.30;60.30;14.90;100687.00;;;;4998456;28;20284;-78
2024/03/23 09:45:29;;;;;;;5.20;1.75;;;13.30;60.60;14.90;100690.00;;;;5000612;28;20233;-75
2024/03/23 09:47:56;;;;;;;5.30;1.40;;;13.30;60.60;15.00;100690.00;;;;4987622;28;20220;-77
2024/03/23 09:50:25;;;;;;;3.33;1.33;;;13.40;60.80;15.10;100675.00;;;;4998012;28;20224;-76
2024/03/23 09:52:51;;;;;;;3.40;1.08;;;13.50;60.50;15.10;100686.00;;;;4989511;28;20667;-80
2024/03/23 09:55:18;;;;;;;5.28;1.10;;;13.50;60.50;15.10;100697.00;;;;4991621;28;20197;-79
2024/03/23 09:57:44;;;;;;;10.55;1.15;;;13.60;59.60;15.10;100686.00;;;;4993738;28;20256;-77
2024/03/23 10:00:14;;;;;;;4.72;1.17;;;13.60;59.70;15.10;100694.00;;;;4999081;28;20200;-80
2024/03/23 10:02:41;;;;;;;6.75;1.48;;;13.60;59.40;15.20;100690.00;;;;4995115;28;20257;-79
2024/03/23 10:05:22;;;;;;;4.55;1.63;;;13.60;59.20;15.00;100686.00;;;;4996033;28;20667;-76
2024/03/23 10:07:50;;;;;;;4.40;1.33;;;13.70;59.00;15.10;100686.00;;;;4992708;28;20229;-79
2024/03/23 10:10:19;;;;;;;4.50;1.10;;;13.60;58.90;15.00;100680.00;;;;4989276;28;20230;-78
2024/03/23 10:12:47;;;;;;;5.10;1.02;;;13.70;58.70;15.00;100684.00;;;;4988603;28;20253;-78
2024/03/23 10:15:20;;;;;;;4.25;1.08;;;13.70;58.60;14.90;100687.00;;;;4992161;28;20200;-78
2024/03/23 10:17:47;;;;;;;5.22;1.35;;;13.70;58.40;15.00;100686.00;;;;4997843;28;20213;-77
2024/03/23 10:20:19;;;;;;;2.63;0.90;;;13.60;58.00;14.90;100700.00;;;;4998703;28;20213;-78
2024/03/23 10:22:46;;;;;;;3.92;1.13;;;13.60;58.20;14.90;100685.00;;;;4993040;28;20198;-80
2024/03/23 10:25:15;;;;;;;8.48;2.03;;;13.60;58.10;14.80;100689.00;;;;4991844;28;20707;-79
2024/03/23 10:27:43;;;;;;;7.82;1.60;;;13.50;58.00;14.80;100686.00;;;;4992162;28;20226;-78
2024/03/23 10:30:12;;;;;;;4.50;0.93;;;13.50;57.00;14.70;100685.00;;;;4997514;28;20280;-82
2024/03/23 10:32:39;;;;;;;3.63;0.77;;;13.50;57.40;14.80;100681.00;;;;5005223;28;20203;-83
2024/03/23 10:35:16;;;;;;;5.07;1.50;;;13.40;57.50;14.70;100679.00;;;;5001667;28;20190;-82
2024/03/23 10:37:43;;;;;;;3.17;0.98;;;13.40;57.20;14.80;100681.00;;;;4994795;28;20197;-77
2024/03/23 10:40:14;;;;;;;6.25;1.10;;;13.50;57.40;14.90;100685.00;;;;4991245;28;20553;-79
2024/03/23 10:42:40;;;;;;;7.20;1.33;;;13.50;57.80;15.00;100685.00;;;;4988715;28;20620;-80
2024/03/23 10:45:09;;;;;;;5.13;1.42;;;13.50;57.50;15.00;100688.00;;;;4994190;28;20312;-79
2024/03/23 10:47:37;;;;;;;5.63;1.98;;;13.60;57.90;15.00;100713.00;;;;4989730;28;20279;-78
2024/03/23 10:50:06;;;;;;;2.20;0.70;;;13.60;56.90;14.90;100728.00;;;;4987837;28;20201;-80